createdAt,value
2023-01-04T00:01:36.782Z,94.40
2023-01-04T00:04:05.157Z,94.24
2023-01-04T00:06:34.749Z,94.31
2023-01-04T00:09:02.845Z,93.93
2023-01-04T00:11:30.901Z,94.18
2023-01-04T00:13:59.958Z,94.26
2023-01-04T00:16:29.255Z,93.99
2023-01-04T00:18:58.109Z,93.94
2023-01-04T00:21:27.719Z,94.16
2023-01-04T00:23:59.250Z,94.17
2023-01-04T00:26:29.069Z,94.05
2023-01-04T00:28:58.588Z,94.01
2023-01-04T00:31:27.262Z,94.18
2023-01-04T00:33:56.203Z,94.07
2023-01-04T00:36:24.418Z,94.09
2023-01-04T00:39:07.350Z,94.33
2023-01-04T00:44:27.078Z,94.47
2023-01-04T00:46:55.211Z,94.48
2023-01-04T00:49:23.316Z,94.51
2023-01-04T00:51:51.541Z,94.77
2023-01-04T00:54:20.007Z,94.74
2023-01-04T00:56:49.712Z,95.43
2023-01-04T00:59:20.439Z,95.84
2023-01-04T01:01:49.390Z,95.24
2023-01-04T01:04:19.300Z,95.37
2023-01-04T01:06:48.094Z,94.95
2023-01-04T01:09:16.533Z,95.16
2023-01-04T01:11:44.967Z,94.78
2023-01-04T01:14:17.728Z,94.72
2023-01-04T01:16:55.793Z,95.03
2023-01-04T01:19:25.713Z,94.67
2023-01-04T01:21:54.007Z,94.64
2023-01-04T01:24:22.142Z,94.58
2023-01-04T01:26:50.305Z,94.57
2023-01-04T01:29:19.779Z,94.71
2023-01-04T01:31:47.959Z,94.50
2023-01-04T01:34:16.121Z,94.62
2023-01-04T01:36:44.224Z,94.64
2023-01-04T01:39:12.305Z,94.62
2023-01-04T01:41:40.652Z,94.24
2023-01-04T01:44:47.385Z,94.39
2023-01-04T01:47:18.938Z,94.26
2023-01-04T01:49:47.848Z,94.38
2023-01-04T01:52:18.878Z,93.98
2023-01-04T01:54:50.227Z,94.12
2023-01-04T01:57:20.452Z,93.96
2023-01-04T01:59:51.356Z,94.24
2023-01-04T02:02:20.991Z,93.90
2023-01-04T02:04:51.220Z,93.82
2023-01-04T02:07:25.858Z,93.62
2023-01-04T02:09:54.841Z,93.76
2023-01-04T02:12:23.210Z,93.28
2023-01-04T02:14:52.137Z,93.35
2023-01-04T02:17:30.589Z,93.59
2023-01-04T02:20:15.459Z,93.32
2023-01-04T02:23:28.885Z,93.14
2023-01-04T02:26:29.899Z,92.86
2023-01-04T02:29:40.809Z,92.60
2023-01-04T02:32:13.565Z,92.16
2023-01-04T02:34:46.604Z,91.69
2023-01-04T02:37:26.689Z,92.24
2023-01-04T02:39:58.577Z,91.88
2023-01-04T02:42:47.992Z,92.07
2023-01-04T02:45:19.264Z,91.43
2023-01-04T02:48:05.567Z,92.01
2023-01-04T02:50:36.847Z,91.31
2023-01-04T02:53:09.692Z,91.43
2023-01-04T02:55:48.873Z,91.73
2023-01-04T02:58:30.451Z,91.73
2023-01-04T03:01:20.950Z,91.59
2023-01-04T03:04:17.165Z,91.66
2023-01-04T03:06:49.713Z,91.89
2023-01-04T03:09:20.916Z,91.92
2023-01-04T03:12:10.899Z,91.65
2023-01-04T03:14:41.126Z,92.09
2023-01-04T03:17:12.861Z,92.34
2023-01-04T03:19:54.615Z,92.19
2023-01-04T03:22:44.145Z,92.41
2023-01-04T03:25:31.307Z,92.54
2023-01-04T03:28:18.910Z,92.78
2023-01-04T03:31:15.175Z,92.89
2023-01-04T03:34:00.990Z,93.17
2023-01-04T03:36:36.725Z,93.38
2023-01-04T03:39:29.502Z,93.97
2023-01-04T03:42:19.784Z,94.32
2023-01-04T03:45:11.336Z,94.07
2023-01-04T03:48:04.685Z,94.29
2023-01-04T03:50:37.982Z,94.32
2023-01-04T03:53:08.769Z,94.48
2023-01-04T03:55:38.553Z,94.93
2023-01-04T03:58:06.648Z,94.96
2023-01-04T04:00:35.498Z,94.97
2023-01-04T04:03:08.169Z,95.17
2023-01-04T04:05:56.882Z,95.55
2023-01-04T04:08:27.866Z,95.41
2023-01-04T04:10:57.267Z,95.38
2023-01-04T04:13:25.711Z,95.50
2023-01-04T04:15:54.826Z,96.06
2023-01-04T04:18:23.044Z,95.82
2023-01-04T04:20:58.580Z,96.76
2023-01-04T04:23:28.036Z,97.14
2023-01-04T04:25:56.125Z,97.26
2023-01-04T04:28:24.260Z,96.55
2023-01-04T04:30:53.053Z,97.02
2023-01-04T04:33:21.161Z,96.56
2023-01-04T04:35:51.918Z,96.82
2023-01-04T04:38:20.536Z,96.33
2023-01-04T04:41:07.394Z,97.00
2023-01-04T04:43:35.615Z,96.55
2023-01-04T04:46:04.025Z,97.44
2023-01-04T04:48:32.302Z,97.36
2023-01-04T04:51:00.460Z,97.68
2023-01-04T04:53:28.516Z,96.97
2023-01-04T04:55:58.020Z,97.28
2023-01-04T04:58:26.111Z,97.42
2023-01-04T05:00:54.293Z,97.54
2023-01-04T05:03:22.643Z,98.28
2023-01-04T05:05:50.730Z,97.48
2023-01-04T05:08:18.826Z,98.03
2023-01-04T05:10:47.195Z,98.23
2023-01-04T05:13:15.678Z,98.35
2023-01-04T05:15:46.239Z,98.17
2023-01-04T05:18:15.586Z,99.45
2023-01-04T05:20:44.256Z,98.58
2023-01-04T05:23:14.206Z,98.11
2023-01-04T05:25:42.560Z,98.67
2023-01-04T05:28:11.693Z,98.02
2023-01-04T05:30:53.924Z,98.83
2023-01-04T05:33:23.523Z,99.31
2023-01-04T05:35:52.219Z,99.44
2023-01-04T05:38:20.904Z,99.00
2023-01-04T05:40:49.995Z,99.15
2023-01-04T05:43:17.867Z,99.36
2023-01-04T05:45:49.724Z,99.35
2023-01-04T05:48:17.889Z,98.92
2023-01-04T05:50:46.775Z,99.99
2023-01-04T05:53:17.318Z,98.93
2023-01-04T05:55:45.408Z,99.33
2023-01-04T05:58:13.451Z,99.90
2023-01-04T06:00:41.558Z,98.57
2023-01-04T06:03:11.162Z,99.40
2023-01-04T06:05:39.386Z,99.31
2023-01-04T06:08:07.641Z,99.69
2023-01-04T06:10:35.730Z,99.42
2023-01-04T06:13:03.802Z,99.17
2023-01-04T06:15:31.866Z,99.77
2023-01-04T06:18:00.008Z,100.00
2023-01-04T06:20:29.466Z,99.40
2023-01-04T06:22:57.543Z,99.14
2023-01-04T06:25:25.603Z,99.84
2023-01-04T06:27:53.658Z,99.67
2023-01-04T06:30:21.694Z,100.00
2023-01-04T06:32:49.769Z,100.00
2023-01-04T06:35:17.985Z,100.00
2023-01-04T06:37:47.428Z,100.00
2023-01-04T06:40:15.578Z,99.96
2023-01-04T06:42:46.337Z,100.00
2023-01-04T06:45:15.322Z,99.98
2023-01-04T06:47:43.510Z,99.84
2023-01-04T06:50:12.286Z,100.00
2023-01-04T06:52:40.495Z,100.00
2023-01-04T06:55:10.791Z,100.00
2023-01-04T06:57:38.909Z,99.89
2023-01-04T07:00:09.153Z,100.00
2023-01-04T07:02:37.535Z,100.00
2023-01-04T07:05:06.383Z,100.00
2023-01-04T07:07:35.532Z,100.00
2023-01-04T07:10:09.470Z,100.00
2023-01-04T07:12:39.739Z,100.00
2023-01-04T07:15:38.980Z,100.00
2023-01-04T07:17:56.944Z,100.00
2023-01-04T07:20:25.014Z,100.00
2023-01-04T07:22:53.397Z,100.00
2023-01-04T07:25:21.823Z,100.00
2023-01-04T07:27:54.039Z,100.00
2023-01-04T07:30:23.009Z,100.00
2023-01-04T07:32:52.732Z,100.00
2023-01-04T07:35:21.227Z,100.00
2023-01-04T07:37:55.671Z,100.00
2023-01-04T07:40:26.596Z,100.00
2023-01-04T07:43:00.315Z,100.00
2023-01-04T07:45:28.676Z,100.00
2023-01-04T07:47:56.787Z,100.00
2023-01-04T07:50:24.864Z,100.00
2023-01-04T07:52:52.929Z,100.00
2023-01-04T07:55:21.043Z,100.00
2023-01-04T07:57:49.109Z,100.00
2023-01-04T08:00:19.179Z,100.00
2023-01-04T08:02:49.700Z,100.00
2023-01-04T08:05:18.069Z,100.00
2023-01-04T08:07:46.184Z,100.00
2023-01-04T08:10:17.039Z,100.00
2023-01-04T08:12:45.104Z,100.00
2023-01-04T08:15:14.908Z,100.00
2023-01-04T08:17:49.201Z,100.00
2023-01-04T08:20:17.570Z,100.00
2023-01-04T08:22:45.630Z,100.00
2023-01-04T08:25:13.724Z,100.00
2023-01-04T08:27:42.409Z,100.00
2023-01-04T08:30:11.409Z,100.00
2023-01-04T08:32:40.616Z,100.00
2023-01-04T08:35:10.373Z,100.00
2023-01-04T08:37:38.437Z,100.00
2023-01-04T08:40:07.549Z,100.00
2023-01-04T08:42:35.634Z,100.00
2023-01-04T08:45:03.751Z,100.00
2023-01-04T08:47:33.084Z,100.00
2023-01-04T08:50:08.206Z,100.00
2023-01-04T08:52:40.007Z,100.00
2023-01-04T08:55:13.199Z,100.00
2023-01-04T08:57:42.148Z,100.00
2023-01-04T09:00:11.604Z,100.00
2023-01-04T09:02:39.884Z,100.00
2023-01-04T09:05:09.086Z,100.00
2023-01-04T09:07:37.295Z,100.00
2023-01-04T09:10:07.832Z,100.00
2023-01-04T09:12:35.908Z,100.00
2023-01-04T09:15:04.461Z,100.00
2023-01-04T09:17:32.659Z,100.00
2023-01-04T09:20:00.700Z,100.00
2023-01-04T09:22:28.862Z,100.00
2023-01-04T09:24:56.966Z,100.00
2023-01-04T09:27:26.490Z,100.00
2023-01-04T09:29:54.672Z,100.00
2023-01-04T09:32:22.745Z,100.00
2023-01-04T09:34:50.906Z,100.00
2023-01-04T09:37:19.135Z,100.00
2023-01-04T09:39:47.665Z,100.00
2023-01-04T09:42:20.525Z,100.00
2023-01-04T09:45:22.457Z,100.00
2023-01-04T09:47:45.222Z,100.00
2023-01-04T09:50:16.594Z,100.00
2023-01-04T09:52:50.477Z,100.00
2023-01-04T09:55:39.630Z,100.00
2023-01-04T09:58:21.943Z,100.00
2023-01-04T10:00:53.645Z,100.00
2023-01-04T10:03:25.336Z,100.00
2023-01-04T10:05:55.616Z,100.00
2023-01-04T10:08:24.244Z,100.00
2023-01-04T10:11:03.198Z,100.00
2023-01-04T10:14:14.779Z,100.00
2023-01-04T10:17:18.070Z,100.00
2023-01-04T10:22:56.446Z,100.00
2023-01-04T10:25:30.817Z,100.00
2023-01-04T10:28:09.847Z,100.00
2023-01-04T10:30:45.288Z,100.00
2023-01-04T10:33:16.380Z,100.00
2023-01-04T10:35:45.872Z,100.00
2023-01-04T10:38:17.991Z,100.00
2023-01-04T10:40:49.364Z,100.00
2023-01-04T10:43:28.084Z,100.00
2023-01-04T10:46:01.127Z,100.00
2023-01-04T10:48:39.358Z,100.00
2023-01-04T10:51:10.520Z,100.00
2023-01-04T10:53:44.604Z,100.00
2023-01-04T10:56:25.111Z,100.00
2023-01-04T10:59:00.256Z,100.00
2023-01-04T11:01:32.890Z,100.00
2023-01-04T11:04:07.047Z,100.00
2023-01-04T11:06:40.197Z,100.00
2023-01-04T11:09:13.321Z,100.00
2023-01-04T11:11:44.474Z,100.00
2023-01-04T11:14:12.858Z,100.00
2023-01-04T11:16:42.878Z,100.00
2023-01-04T11:19:12.704Z,100.00
2023-01-04T11:21:44.227Z,100.00
2023-01-04T11:24:31.619Z,100.00
2023-01-04T11:27:05.422Z,100.00
2023-01-04T11:29:36.352Z,100.00
2023-01-04T11:32:07.132Z,100.00
2023-01-04T11:34:49.257Z,100.00
2023-01-04T11:37:26.528Z,100.00
2023-01-04T11:40:19.961Z,100.00
2023-01-04T11:42:49.563Z,100.00
2023-01-04T11:45:19.894Z,100.00
2023-01-04T11:47:55.740Z,100.00
2023-01-04T11:50:41.085Z,100.00
2023-01-04T11:53:27.865Z,100.00
2023-01-04T11:56:20.095Z,100.00
2023-01-04T11:59:07.991Z,100.00
2023-01-04T12:01:37.787Z,100.00
2023-01-04T12:04:12.358Z,100.00
2023-01-04T12:06:44.604Z,100.00
2023-01-04T12:09:14.897Z,100.00
2023-01-04T12:11:44.567Z,100.00
2023-01-04T12:14:19.876Z,100.00
2023-01-04T12:16:52.635Z,100.00
2023-01-04T12:19:22.440Z,100.00
2023-01-04T12:21:53.885Z,100.00
2023-01-04T12:24:24.138Z,100.00
2023-01-04T12:26:52.956Z,100.00
2023-01-04T12:29:55.009Z,100.00
2023-01-04T12:32:42.833Z,100.00
2023-01-04T12:35:44.099Z,100.00
2023-01-04T12:38:13.540Z,100.00
2023-01-04T12:40:55.142Z,100.00
2023-01-04T12:43:27.878Z,100.00
2023-01-04T12:46:58.255Z,100.00
2023-01-04T12:49:46.481Z,100.00
2023-01-04T12:52:48.418Z,100.00
2023-01-04T12:55:58.011Z,100.00
2023-01-04T13:02:21.834Z,100.00
2023-01-04T13:04:59.084Z,100.00
2023-01-04T13:07:43.651Z,100.00
2023-01-04T13:10:22.415Z,100.00
2023-01-04T13:13:08.336Z,100.00
2023-01-04T13:15:46.995Z,100.00
2023-01-04T13:18:29.549Z,100.00
2023-01-04T13:20:57.709Z,100.00
2023-01-04T13:23:27.233Z,100.00
2023-01-04T13:25:55.309Z,100.00
2023-01-04T13:28:24.801Z,100.00
2023-01-04T13:31:00.859Z,100.00
2023-01-04T13:33:29.204Z,100.00
2023-01-04T13:36:10.530Z,100.00
2023-01-04T13:38:40.553Z,100.00
2023-01-04T13:41:20.959Z,100.00
2023-01-04T13:44:06.551Z,100.00
2023-01-04T13:46:34.695Z,100.00
2023-01-04T13:49:03.553Z,100.00
2023-01-04T13:51:37.717Z,100.00
2023-01-04T13:54:18.236Z,100.00
2023-01-04T13:56:53.318Z,100.00
2023-01-04T13:59:24.789Z,100.00
2023-01-04T14:01:53.364Z,100.00
2023-01-04T14:04:25.535Z,100.00
2023-01-04T14:06:55.452Z,100.00
2023-01-04T14:09:25.551Z,100.00
2023-01-04T14:12:09.636Z,100.00
2023-01-04T14:14:48.705Z,100.00
2023-01-04T14:17:34.848Z,100.00
2023-01-04T14:20:04.698Z,100.00
2023-01-04T14:22:43.649Z,100.00
2023-01-04T14:25:56.436Z,100.00
2023-01-04T14:28:49.894Z,100.00
2023-01-04T14:31:26.938Z,100.00
2023-01-04T14:33:55.847Z,100.00
2023-01-04T14:36:26.889Z,100.00
2023-01-04T14:39:11.569Z,100.00
2023-01-04T14:41:40.992Z,100.00
2023-01-04T14:44:14.725Z,100.00
2023-01-04T14:46:47.004Z,100.00
2023-01-04T14:49:15.298Z,100.00
2023-01-04T14:51:45.158Z,100.00
2023-01-04T14:54:20.444Z,100.00
2023-01-04T14:56:52.665Z,100.00
2023-01-04T14:59:23.651Z,100.00
2023-01-04T15:01:53.681Z,100.00
2023-01-04T15:04:21.947Z,100.00
2023-01-04T15:06:52.184Z,100.00
2023-01-04T15:09:20.268Z,100.00
2023-01-04T15:11:48.369Z,100.00
2023-01-04T15:14:16.731Z,100.00
2023-01-04T15:16:44.876Z,100.00
2023-01-04T15:19:14.506Z,100.00
2023-01-04T15:21:42.705Z,100.00
2023-01-04T15:24:10.867Z,100.00
2023-01-04T15:26:39.738Z,100.00
2023-01-04T15:29:08.538Z,100.00
2023-01-04T15:31:40.385Z,100.00
2023-01-04T15:34:10.324Z,100.00
2023-01-04T15:36:41.124Z,100.00
2023-01-04T15:39:12.383Z,100.00
2023-01-04T15:41:57.858Z,100.00
2023-01-04T15:44:26.285Z,100.00
2023-01-04T15:46:54.525Z,100.00
2023-01-04T15:49:22.713Z,100.00
2023-01-04T15:51:52.250Z,100.00
2023-01-04T15:54:21.738Z,100.00
2023-01-04T15:56:50.247Z,100.00
2023-01-04T15:59:18.546Z,100.00
2023-01-04T16:01:47.518Z,100.00
2023-01-04T16:04:16.057Z,100.00
2023-01-04T16:06:44.138Z,100.00
2023-01-04T16:09:13.664Z,100.00
2023-01-04T16:12:02.040Z,100.00
2023-01-04T16:14:30.231Z,100.00
2023-01-04T16:16:58.344Z,100.00
2023-01-04T16:19:27.566Z,100.00
2023-01-04T16:21:56.079Z,100.00
2023-01-04T16:27:13.683Z,100.00
2023-01-04T16:29:41.780Z,100.00
2023-01-04T16:32:09.850Z,100.00
2023-01-04T16:34:37.963Z,100.00
2023-01-04T16:37:06.332Z,100.00
2023-01-04T16:42:24.044Z,100.00
2023-01-04T16:44:52.177Z,100.00
2023-01-04T16:47:20.469Z,100.00
2023-01-04T16:49:52.366Z,100.00
2023-01-04T16:52:20.570Z,100.00
2023-01-04T16:54:50.216Z,100.00
2023-01-04T16:57:18.317Z,100.00
2023-01-04T16:59:46.434Z,100.00
2023-01-04T17:02:14.762Z,100.00
2023-01-04T17:04:43.072Z,100.00
2023-01-04T17:07:11.407Z,100.00
2023-01-04T17:09:41.294Z,100.00
2023-01-04T17:12:45.531Z,100.00
2023-01-04T17:17:46.951Z,100.00
2023-01-04T17:20:15.196Z,100.00
2023-01-04T17:22:43.320Z,100.00
2023-01-04T17:25:11.460Z,100.00
2023-01-04T17:27:40.956Z,100.00
2023-01-04T17:30:10.517Z,100.00
2023-01-04T17:32:38.629Z,100.00
2023-01-04T17:35:06.960Z,100.00
2023-01-04T17:37:35.044Z,100.00
2023-01-04T17:40:03.445Z,100.00
2023-01-04T17:42:33.478Z,100.00
2023-01-04T17:45:02.978Z,100.00
2023-01-04T17:47:31.088Z,100.00
2023-01-04T17:49:59.179Z,100.00
2023-01-04T17:52:31.192Z,100.00
2023-01-04T17:54:59.767Z,100.00
2023-01-04T17:57:29.433Z,100.00
2023-01-04T17:59:57.515Z,100.00
2023-01-04T18:02:29.736Z,100.00
2023-01-04T18:04:57.874Z,100.00
2023-01-04T18:07:25.997Z,100.00
2023-01-04T18:09:54.491Z,100.00
2023-01-04T18:12:22.916Z,100.00
2023-01-04T18:14:51.052Z,100.00
2023-01-04T18:17:19.173Z,100.00
2023-01-04T18:19:48.769Z,100.00
2023-01-04T18:22:17.014Z,100.00
2023-01-04T18:24:45.099Z,100.00
2023-01-04T18:27:23.662Z,100.00
2023-01-04T18:29:54.146Z,100.00
2023-01-04T18:32:22.409Z,100.00
2023-01-04T18:34:51.939Z,100.00
2023-01-04T18:37:20.411Z,100.00
2023-01-04T18:39:48.996Z,100.00
2023-01-04T18:42:17.335Z,100.00
2023-01-04T18:44:49.631Z,100.00
2023-01-04T18:47:19.966Z,100.00
2023-01-04T18:49:48.629Z,100.00
2023-01-04T18:52:18.844Z,100.00
2023-01-04T18:54:48.414Z,100.00
2023-01-04T18:57:16.598Z,100.00
2023-01-04T18:59:44.792Z,100.00
2023-01-04T19:02:17.117Z,100.00
2023-01-04T19:04:45.733Z,100.00
2023-01-04T19:07:13.883Z,100.00
2023-01-04T19:09:43.534Z,100.00
2023-01-04T19:12:12.078Z,100.00
2023-01-04T19:14:41.777Z,100.00
2023-01-04T19:17:10.222Z,100.00
2023-01-04T19:19:38.446Z,100.00
2023-01-04T19:22:07.216Z,100.00
2023-01-04T19:24:35.294Z,100.00
2023-01-04T19:27:05.299Z,100.00
2023-01-04T19:29:34.034Z,100.00
2023-01-04T19:32:02.225Z,100.00
2023-01-04T19:34:30.317Z,100.00
2023-01-04T19:36:58.410Z,100.00
2023-01-04T19:39:26.675Z,100.00
2023-01-04T19:41:54.790Z,100.00
2023-01-04T19:44:24.592Z,100.00
2023-01-04T19:46:52.670Z,100.00
2023-01-04T19:49:20.780Z,100.00
2023-01-04T19:51:51.623Z,100.00
2023-01-04T19:54:25.132Z,100.00
2023-01-04T19:56:54.022Z,100.00
2023-01-04T19:59:22.306Z,100.00
2023-01-04T20:01:52.157Z,100.00
2023-01-04T20:04:20.907Z,100.00
2023-01-04T20:06:49.170Z,100.00
2023-01-04T20:09:20.401Z,100.00
2023-01-04T20:11:48.467Z,100.00
2023-01-04T20:14:16.546Z,100.00
2023-01-04T20:16:44.644Z,100.00
2023-01-04T20:19:14.431Z,100.00
2023-01-04T20:21:42.746Z,100.00
2023-01-04T20:24:11.381Z,100.00
2023-01-04T20:26:39.877Z,100.00
2023-01-04T20:29:08.251Z,100.00
2023-01-04T20:31:40.873Z,100.00
2023-01-04T20:34:12.101Z,100.00
2023-01-04T20:36:41.543Z,100.00
2023-01-04T20:39:09.729Z,100.00
2023-01-04T20:41:37.833Z,100.00
2023-01-04T20:44:05.237Z,100.00
2023-01-04T20:46:33.606Z,100.00
2023-01-04T20:49:02.384Z,100.00
2023-01-04T20:51:31.215Z,100.00
2023-01-04T20:54:01.281Z,100.00
2023-01-04T20:56:31.541Z,100.00
2023-01-04T20:58:59.682Z,100.00
2023-01-04T21:01:27.936Z,100.00
2023-01-04T21:03:56.521Z,100.00
2023-01-04T21:06:25.068Z,100.00
2023-01-04T21:08:54.932Z,100.00
2023-01-04T21:11:24.736Z,100.00
2023-01-04T21:13:53.505Z,100.00
2023-01-04T21:16:21.771Z,100.00
2023-01-04T21:18:49.902Z,100.00
2023-01-04T21:21:20.000Z,100.00
2023-01-04T21:23:56.046Z,99.98
2023-01-04T21:26:27.558Z,100.00
2023-01-04T21:28:55.679Z,100.00
2023-01-04T21:31:25.832Z,100.00
2023-01-04T21:33:54.974Z,99.90
2023-01-04T21:36:25.005Z,100.00
2023-01-04T21:38:54.501Z,99.87
2023-01-04T21:41:24.973Z,100.00
2023-01-04T21:43:56.659Z,99.88
2023-01-04T21:46:26.049Z,99.71
2023-01-04T21:48:55.170Z,99.82
2023-01-04T21:51:23.576Z,99.69
2023-01-04T21:53:51.762Z,99.57
2023-01-04T21:56:21.036Z,99.57
2023-01-04T21:58:49.491Z,99.27
2023-01-04T22:01:20.836Z,99.49
2023-01-04T22:03:49.146Z,99.49
2023-01-04T22:06:17.790Z,99.41
2023-01-04T22:08:46.503Z,99.21
2023-01-04T22:11:15.591Z,99.37
2023-01-04T22:13:44.142Z,99.04
2023-01-04T22:16:14.553Z,99.24
2023-01-04T22:18:46.994Z,98.99
2023-01-04T22:21:16.788Z,99.36
2023-01-04T22:23:44.973Z,99.12
2023-01-04T22:26:13.084Z,99.13
2023-01-04T22:28:41.199Z,99.29
2023-01-04T22:31:12.398Z,99.05
2023-01-04T22:33:40.639Z,99.02
2023-01-04T22:36:19.121Z,98.86
2023-01-04T22:38:50.457Z,98.56
2023-01-04T22:41:21.194Z,98.64
2023-01-04T22:43:54.335Z,98.91
2023-01-04T22:46:22.460Z,98.93
2023-01-04T22:48:50.577Z,98.94
2023-01-04T22:51:20.804Z,98.99
2023-01-04T22:53:49.343Z,98.84
2023-01-04T22:56:19.938Z,98.84
2023-01-04T22:58:53.344Z,98.61
2023-01-04T23:01:22.535Z,98.77
2023-01-04T23:03:51.857Z,98.76
2023-01-04T23:06:22.203Z,98.57
2023-01-04T23:08:55.900Z,97.99
2023-01-04T23:11:24.241Z,98.52
2023-01-04T23:13:53.125Z,98.40
2023-01-04T23:16:24.965Z,98.43
2023-01-04T23:18:57.880Z,98.41
2023-01-04T23:21:27.508Z,98.51
2023-01-04T23:23:55.640Z,98.83
2023-01-04T23:26:25.091Z,98.71
2023-01-04T23:28:53.604Z,98.76
2023-01-04T23:31:23.351Z,98.94
2023-01-04T23:33:54.064Z,98.75
2023-01-04T23:36:24.419Z,98.65
2023-01-04T23:38:55.496Z,97.95
2023-01-04T23:41:44.236Z,97.54
2023-01-04T23:44:14.691Z,97.77
2023-01-04T23:46:43.234Z,97.60
2023-01-04T23:49:11.699Z,97.56
2023-01-04T23:51:40.063Z,97.49
2023-01-04T23:54:09.846Z,97.11
2023-01-04T23:56:38.658Z,97.49
2023-01-04T23:59:06.916Z,97.09
